sensor_id;sensor_type;location;lat;lon;timestamp;temperature;humidity
53432;DHT22;39329;44.754;19.680;2022-07-23T04:33:08;23.80;87.40
53432;DHT22;39329;44.754;19.680;2022-07-23T04:35:34;32.20;71.80
53432;DHT22;39329;44.754;19.680;2022-07-23T04:37:59;33.50;68.80
53432;DHT22;39329;44.754;19.680;2022-07-23T04:40:25;34.20;67.70
53432;DHT22;39329;44.754;19.680;2022-07-23T04:42:51;35.10;67.40
53432;DHT22;39329;44.754;19.680;2022-07-23T04:45:16;35.70;66.70
53432;DHT22;39329;44.754;19.680;2022-07-23T04:50:08;37.40;63.90
53432;DHT22;39329;44.754;19.680;2022-07-23T04:52:33;37.40;64.30
53432;DHT22;39329;44.754;19.680;2022-07-23T04:57:25;38.30;85.90
53432;DHT22;39329;44.754;19.680;2022-07-23T04:59:51;39.40;62.60
53432;DHT22;39329;44.754;19.680;2022-07-23T05:02:16;39.80;75.20
53432;DHT22;39329;44.754;19.680;2022-07-23T05:04:42;40.30;61.60
53432;DHT22;39329;44.754;19.680;2022-07-23T05:07:07;40.90;61.50
53432;DHT22;39329;44.754;19.680;2022-07-23T05:09:33;41.10;60.50
53432;DHT22;39329;44.754;19.680;2022-07-23T05:11:59;41.80;60.00
53432;DHT22;39329;44.754;19.680;2022-07-23T05:14:25;41.80;59.60
53432;DHT22;39329;44.754;19.680;2022-07-23T05:16:50;41.80;60.10
53432;DHT22;39329;44.754;19.680;2022-07-23T05:19:16;42.00;60.30
53432;DHT22;39329;44.754;19.680;2022-07-23T05:21:41;42.70;59.50
53432;DHT22;39329;44.754;19.680;2022-07-23T05:24:07;43.10;59.00
53432;DHT22;39329;44.754;19.680;2022-07-23T05:26:33;43.30;58.40
53432;DHT22;39329;44.754;19.680;2022-07-23T05:28:58;43.40;58.60
53432;DHT22;39329;44.754;19.680;2022-07-23T05:31:24;43.60;58.30
53432;DHT22;39329;44.754;19.680;2022-07-23T05:33:49;44.10;58.20
53432;DHT22;39329;44.754;19.680;2022-07-23T05:36:15;44.20;57.50
53432;DHT22;39329;44.754;19.680;2022-07-23T05:38:41;44.40;57.20
53432;DHT22;39329;44.754;19.680;2022-07-23T05:41:06;44.50;57.00
53432;DHT22;39329;44.754;19.680;2022-07-23T05:43:32;44.80;56.40
53432;DHT22;39329;44.754;19.680;2022-07-23T05:45:57;44.70;56.30
53432;DHT22;39329;44.754;19.680;2022-07-23T05:48:23;45.00;56.60
53432;DHT22;39329;44.754;19.680;2022-07-23T05:50:48;45.40;56.20
53432;DHT22;39329;44.754;19.680;2022-07-23T05:53:14;45.70;56.00
53432;DHT22;39329;44.754;19.680;2022-07-23T05:55:40;46.10;55.40
53432;DHT22;39329;44.754;19.680;2022-07-23T05:58:05;45.60;56.50
53432;DHT22;39329;44.754;19.680;2022-07-23T06:00:31;46.00;55.40
53432;DHT22;39329;44.754;19.680;2022-07-23T06:02:56;46.60;55.30
53432;DHT22;39329;44.754;19.680;2022-07-23T06:05:22;46.20;55.10
53432;DHT22;39329;44.754;19.680;2022-07-23T06:07:48;46.20;55.10
53432;DHT22;39329;44.754;19.680;2022-07-23T06:10:14;46.20;55.10
53432;DHT22;39329;44.754;19.680;2022-07-23T06:12:39;46.50;55.00
53432;DHT22;39329;44.754;19.680;2022-07-23T06:15:06;46.80;55.10
53432;DHT22;39329;44.754;19.680;2022-07-23T06:17:32;47.00;55.20
53432;DHT22;39329;44.754;19.680;2022-07-23T06:19:57;46.90;55.20
53432;DHT22;39329;44.754;19.680;2022-07-23T06:22:23;46.90;54.90
53432;DHT22;39329;44.754;19.680;2022-07-23T06:24:50;47.10;55.10
53432;DHT22;39329;44.754;19.680;2022-07-23T06:27:17;47.10;54.70
53432;DHT22;39329;44.754;19.680;2022-07-23T06:29:42;47.00;55.70
53432;DHT22;39329;44.754;19.680;2022-07-23T06:32:08;47.30;55.10
53432;DHT22;39329;44.754;19.680;2022-07-23T06:34:34;47.50;54.70
53432;DHT22;39329;44.754;19.680;2022-07-23T06:36:59;47.70;54.70
53432;DHT22;39329;44.754;19.680;2022-07-23T06:39:25;48.10;54.80
53432;DHT22;39329;44.754;19.680;2022-07-23T06:41:51;48.00;54.50
53432;DHT22;39329;44.754;19.680;2022-07-23T06:44:16;48.00;54.30
53432;DHT22;39329;44.754;19.680;2022-07-23T06:46:42;48.20;54.20
53432;DHT22;39329;44.754;19.680;2022-07-23T06:49:08;48.20;54.10
53432;DHT22;39329;44.754;19.680;2022-07-23T06:51:34;48.40;54.70
53432;DHT22;39329;44.754;19.680;2022-07-23T06:53:59;48.10;54.00
53432;DHT22;39329;44.754;19.680;2022-07-23T06:56:25;48.10;54.20
53432;DHT22;39329;44.754;19.680;2022-07-23T06:58:52;47.90;54.60
53432;DHT22;39329;44.754;19.680;2022-07-23T07:01:18;47.90;54.70
53432;DHT22;39329;44.754;19.680;2022-07-23T07:03:43;47.90;54.30
53432;DHT22;39329;44.754;19.680;2022-07-23T07:06:09;48.20;55.60
53432;DHT22;39329;44.754;19.680;2022-07-23T07:08:35;48.40;54.50
53432;DHT22;39329;44.754;19.680;2022-07-23T07:11:00;48.20;54.40
53432;DHT22;39329;44.754;19.680;2022-07-23T07:13:26;48.50;55.50
53432;DHT22;39329;44.754;19.680;2022-07-23T07:15:51;48.50;54.80
53432;DHT22;39329;44.754;19.680;2022-07-23T07:18:17;48.70;54.50
53432;DHT22;39329;44.754;19.680;2022-07-23T07:20:43;48.40;54.50
53432;DHT22;39329;44.754;19.680;2022-07-23T07:23:08;48.40;54.90
53432;DHT22;39329;44.754;19.680;2022-07-23T07:25:34;48.70;54.40
53432;DHT22;39329;44.754;19.680;2022-07-23T07:27:59;48.90;54.90
53432;DHT22;39329;44.754;19.680;2022-07-23T07:30:25;48.90;54.70
53432;DHT22;39329;44.754;19.680;2022-07-23T07:32:51;48.40;54.40
53432;DHT22;39329;44.754;19.680;2022-07-23T07:35:16;48.10;54.10
53432;DHT22;39329;44.754;19.680;2022-07-23T07:37:42;48.30;54.70
53432;DHT22;39329;44.754;19.680;2022-07-23T07:40:07;48.00;55.40
53432;DHT22;39329;44.754;19.680;2022-07-23T07:42:33;48.20;54.60
53432;DHT22;39329;44.754;19.680;2022-07-23T07:44:59;48.10;54.40
53432;DHT22;39329;44.754;19.680;2022-07-23T07:47:24;48.20;54.70
53432;DHT22;39329;44.754;19.680;2022-07-23T07:49:50;47.80;54.70
53432;DHT22;39329;44.754;19.680;2022-07-23T07:52:15;47.70;55.70
53432;DHT22;39329;44.754;19.680;2022-07-23T07:54:41;47.70;55.30
53432;DHT22;39329;44.754;19.680;2022-07-23T07:57:08;47.90;54.70
53432;DHT22;39329;44.754;19.680;2022-07-23T07:59:33;47.90;54.90
53432;DHT22;39329;44.754;19.680;2022-07-23T08:01:59;47.90;55.80
53432;DHT22;39329;44.754;19.680;2022-07-23T08:04:24;48.10;55.90
53432;DHT22;39329;44.754;19.680;2022-07-23T08:06:50;47.70;54.90
53432;DHT22;39329;44.754;19.680;2022-07-23T08:09:15;47.60;56.20
53432;DHT22;39329;44.754;19.680;2022-07-23T08:11:41;47.40;56.00
53432;DHT22;39329;44.754;19.680;2022-07-23T08:14:06;47.10;56.90
53432;DHT22;39329;44.754;19.680;2022-07-23T08:16:32;46.70;56.90
53432;DHT22;39329;44.754;19.680;2022-07-23T08:18:58;46.70;56.90
53432;DHT22;39329;44.754;19.680;2022-07-23T08:21:23;46.40;56.80
53432;DHT22;39329;44.754;19.680;2022-07-23T08:23:49;46.40;56.90
53432;DHT22;39329;44.754;19.680;2022-07-23T08:26:14;46.10;57.10
53432;DHT22;39329;44.754;19.680;2022-07-23T08:28:40;45.80;57.30
53432;DHT22;39329;44.754;19.680;2022-07-23T08:31:05;45.20;57.00
53432;DHT22;39329;44.754;19.680;2022-07-23T08:33:31;44.90;56.70
53432;DHT22;39329;44.754;19.680;2022-07-23T08:35:57;44.70;56.00
53432;DHT22;39329;44.754;19.680;2022-07-23T08:38:22;44.80;57.20
53432;DHT22;39329;44.754;19.680;2022-07-23T08:40:49;44.80;56.70
53432;DHT22;39329;44.754;19.680;2022-07-23T08:43:25;44.80;56.30
53432;DHT22;39329;44.754;19.680;2022-07-23T08:45:52;44.40;55.60
53432;DHT22;39329;44.754;19.680;2022-07-23T08:48:19;44.60;56.70
53432;DHT22;39329;44.754;19.680;2022-07-23T08:50:47;44.30;57.40
53432;DHT22;39329;44.754;19.680;2022-07-23T08:53:13;44.20;57.60
53432;DHT22;39329;44.754;19.680;2022-07-23T08:55:39;44.30;56.30
53432;DHT22;39329;44.754;19.680;2022-07-23T08:58:05;44.20;55.70
53432;DHT22;39329;44.754;19.680;2022-07-23T09:00:31;43.80;55.10
53432;DHT22;39329;44.754;19.680;2022-07-23T09:02:57;43.50;55.90
53432;DHT22;39329;44.754;19.680;2022-07-23T09:05:23;43.40;54.80
53432;DHT22;39329;44.754;19.680;2022-07-23T09:10:49;43.30;54.60
53432;DHT22;39329;44.754;19.680;2022-07-23T09:13:31;43.40;54.00
53432;DHT22;39329;44.754;19.680;2022-07-23T09:15:59;43.20;54.00
53432;DHT22;39329;44.754;19.680;2022-07-23T09:18:32;43.00;53.40
53432;DHT22;39329;44.754;19.680;2022-07-23T09:21:32;42.90;52.50
53432;DHT22;39329;44.754;19.680;2022-07-23T09:23:54;42.80;53.50
53432;DHT22;39329;44.754;19.680;2022-07-23T09:26:29;42.60;52.90
53432;DHT22;39329;44.754;19.680;2022-07-23T09:28:58;43.00;52.80
53432;DHT22;39329;44.754;19.680;2022-07-23T09:31:24;42.80;52.40
53432;DHT22;39329;44.754;19.680;2022-07-23T09:33:50;43.10;53.80
53432;DHT22;39329;44.754;19.680;2022-07-23T09:36:18;43.10;52.80
53432;DHT22;39329;44.754;19.680;2022-07-23T09:38:51;43.10;52.40
53432;DHT22;39329;44.754;19.680;2022-07-23T09:41:17;43.10;53.60
53432;DHT22;39329;44.754;19.680;2022-07-23T09:43:43;43.10;52.20
53432;DHT22;39329;44.754;19.680;2022-07-23T09:46:25;43.10;52.40
53432;DHT22;39329;44.754;19.680;2022-07-23T09:48:51;42.80;53.70
53432;DHT22;39329;44.754;19.680;2022-07-23T09:51:17;42.80;53.20
53432;DHT22;39329;44.754;19.680;2022-07-23T09:53:49;42.90;53.10
53432;DHT22;39329;44.754;19.680;2022-07-23T09:56:14;43.00;53.30
53432;DHT22;39329;44.754;19.680;2022-07-23T09:58:41;43.20;53.70
53432;DHT22;39329;44.754;19.680;2022-07-23T10:01:12;43.20;52.90
53432;DHT22;39329;44.754;19.680;2022-07-23T10:03:38;43.30;53.90
53432;DHT22;39329;44.754;19.680;2022-07-23T10:06:04;43.20;53.20
53432;DHT22;39329;44.754;19.680;2022-07-23T10:08:29;43.20;52.90
53432;DHT22;39329;44.754;19.680;2022-07-23T10:10:56;43.30;53.10
53432;DHT22;39329;44.754;19.680;2022-07-23T10:13:21;43.00;53.20
53432;DHT22;39329;44.754;19.680;2022-07-23T10:16:07;42.90;53.30
53432;DHT22;39329;44.754;19.680;2022-07-23T10:18:33;43.20;53.00
53432;DHT22;39329;44.754;19.680;2022-07-23T10:20:58;43.10;53.00
53432;DHT22;39329;44.754;19.680;2022-07-23T10:23:32;43.10;53.60
53432;DHT22;39329;44.754;19.680;2022-07-23T10:26:08;43.10;53.10
53432;DHT22;39329;44.754;19.680;2022-07-23T10:33:46;42.90;53.10
53432;DHT22;39329;44.754;19.680;2022-07-23T10:36:19;43.10;53.00
53432;DHT22;39329;44.754;19.680;2022-07-23T10:41:14;43.10;54.00
53432;DHT22;39329;44.754;19.680;2022-07-23T10:43:39;42.60;53.30
53432;DHT22;39329;44.754;19.680;2022-07-23T10:46:24;42.90;54.00
53432;DHT22;39329;44.754;19.680;2022-07-23T10:54:30;43.10;54.00
53432;DHT22;39329;44.754;19.680;2022-07-23T10:59:21;42.90;53.50
53432;DHT22;39329;44.754;19.680;2022-07-23T11:01:47;42.90;53.40
53432;DHT22;39329;44.754;19.680;2022-07-23T11:04:13;43.10;53.90
53432;DHT22;39329;44.754;19.680;2022-07-23T11:09:25;43.00;53.30
53432;DHT22;39329;44.754;19.680;2022-07-23T11:17:20;43.00;53.90
53432;DHT22;39329;44.754;19.680;2022-07-23T11:25:07;43.30;53.00
53432;DHT22;39329;44.754;19.680;2022-07-23T11:27:43;43.20;54.20
53432;DHT22;39329;44.754;19.680;2022-07-23T11:30:36;43.50;54.90
53432;DHT22;39329;44.754;19.680;2022-07-23T11:35:33;43.40;52.40
53432;DHT22;39329;44.754;19.680;2022-07-23T11:38:06;43.40;53.60
53432;DHT22;39329;44.754;19.680;2022-07-23T11:40:32;43.20;53.10
53432;DHT22;39329;44.754;19.680;2022-07-23T11:42:59;43.20;53.00
53432;DHT22;39329;44.754;19.680;2022-07-23T11:45:29;43.30;53.50
53432;DHT22;39329;44.754;19.680;2022-07-23T11:47:55;42.70;53.10
53432;DHT22;39329;44.754;19.680;2022-07-23T11:50:22;43.20;53.70
53432;DHT22;39329;44.754;19.680;2022-07-23T11:52:48;43.30;53.20
53432;DHT22;39329;44.754;19.680;2022-07-23T11:55:13;43.00;52.60
53432;DHT22;39329;44.754;19.680;2022-07-23T11:57:42;43.20;53.60
53432;DHT22;39329;44.754;19.680;2022-07-23T12:02:35;42.70;53.40
53432;DHT22;39329;44.754;19.680;2022-07-23T12:05:00;42.80;53.80
53432;DHT22;39329;44.754;19.680;2022-07-23T12:07:33;43.10;54.30
53432;DHT22;39329;44.754;19.680;2022-07-23T12:10:42;43.10;53.70
53432;DHT22;39329;44.754;19.680;2022-07-23T12:12:52;43.00;54.40
53432;DHT22;39329;44.754;19.680;2022-07-23T12:15:20;43.20;54.50
53432;DHT22;39329;44.754;19.680;2022-07-23T12:17:48;43.20;54.20
53432;DHT22;39329;44.754;19.680;2022-07-23T12:23:07;43.10;54.60
53432;DHT22;39329;44.754;19.680;2022-07-23T12:25:34;43.00;54.90
53432;DHT22;39329;44.754;19.680;2022-07-23T12:28:10;43.00;54.50
53432;DHT22;39329;44.754;19.680;2022-07-23T12:33:09;43.00;54.60
53432;DHT22;39329;44.754;19.680;2022-07-23T12:35:39;43.10;55.30
53432;DHT22;39329;44.754;19.680;2022-07-23T12:38:08;43.20;54.60
53432;DHT22;39329;44.754;19.680;2022-07-23T12:40:53;43.10;54.10
53432;DHT22;39329;44.754;19.680;2022-07-23T12:43:23;43.30;54.00
53432;DHT22;39329;44.754;19.680;2022-07-23T12:48:16;42.80;54.90
53432;DHT22;39329;44.754;19.680;2022-07-23T12:53:17;43.10;54.50
53432;DHT22;39329;44.754;19.680;2022-07-23T12:55:43;43.10;54.90
53432;DHT22;39329;44.754;19.680;2022-07-23T12:58:12;43.00;54.60
53432;DHT22;39329;44.754;19.680;2022-07-23T13:03:26;43.10;55.10
53432;DHT22;39329;44.754;19.680;2022-07-23T13:05:52;43.00;55.00
53432;DHT22;39329;44.754;19.680;2022-07-23T13:08:18;42.90;55.70
53432;DHT22;39329;44.754;19.680;2022-07-23T13:10:43;42.90;55.40
53432;DHT22;39329;44.754;19.680;2022-07-23T13:13:12;42.80;55.40
53432;DHT22;39329;44.754;19.680;2022-07-23T13:15:38;42.80;55.70
53432;DHT22;39329;44.754;19.680;2022-07-23T13:18:03;42.80;55.30
53432;DHT22;39329;44.754;19.680;2022-07-23T13:20:29;42.80;55.10
53432;DHT22;39329;44.754;19.680;2022-07-23T13:22:57;42.70;55.10
53432;DHT22;39329;44.754;19.680;2022-07-23T13:25:22;42.50;55.50
53432;DHT22;39329;44.754;19.680;2022-07-23T13:27:48;42.60;55.70
53432;DHT22;39329;44.754;19.680;2022-07-23T13:30:14;42.50;55.20
53432;DHT22;39329;44.754;19.680;2022-07-23T13:32:40;42.40;55.40
53432;DHT22;39329;44.754;19.680;2022-07-23T13:35:06;42.30;55.10
53432;DHT22;39329;44.754;19.680;2022-07-23T13:37:31;42.10;55.60
53432;DHT22;39329;44.754;19.680;2022-07-23T13:39:57;42.00;55.40
53432;DHT22;39329;44.754;19.680;2022-07-23T13:42:22;42.00;55.70
53432;DHT22;39329;44.754;19.680;2022-07-23T13:44:48;42.10;54.90
53432;DHT22;39329;44.754;19.680;2022-07-23T13:47:13;42.10;55.70
53432;DHT22;39329;44.754;19.680;2022-07-23T13:49:39;42.00;55.30
53432;DHT22;39329;44.754;19.680;2022-07-23T13:52:05;42.10;55.30
53432;DHT22;39329;44.754;19.680;2022-07-23T13:54:30;42.10;55.70
53432;DHT22;39329;44.754;19.680;2022-07-23T13:56:56;42.00;55.40
53432;DHT22;39329;44.754;19.680;2022-07-23T13:59:21;41.90;55.60
53432;DHT22;39329;44.754;19.680;2022-07-23T14:01:47;41.80;55.20
53432;DHT22;39329;44.754;19.680;2022-07-23T14:04:13;41.90;55.50
53432;DHT22;39329;44.754;19.680;2022-07-23T14:06:38;42.00;56.00
53432;DHT22;39329;44.754;19.680;2022-07-23T14:09:04;42.00;55.00
53432;DHT22;39329;44.754;19.680;2022-07-23T14:11:29;41.80;54.80
53432;DHT22;39329;44.754;19.680;2022-07-23T14:13:56;42.00;55.30
53432;DHT22;39329;44.754;19.680;2022-07-23T14:16:22;41.90;55.90
53432;DHT22;39329;44.754;19.680;2022-07-23T14:18:48;41.90;55.80
53432;DHT22;39329;44.754;19.680;2022-07-23T14:21:13;41.80;56.00
53432;DHT22;39329;44.754;19.680;2022-07-23T14:23:39;41.80;55.40
53432;DHT22;39329;44.754;19.680;2022-07-23T14:26:05;41.70;54.80
53432;DHT22;39329;44.754;19.680;2022-07-23T14:28:32;41.70;74.90
53432;DHT22;39329;44.754;19.680;2022-07-23T14:30:58;42.00;82.50
53432;DHT22;39329;44.754;19.680;2022-07-23T14:33:23;41.70;77.40
53432;DHT22;39329;44.754;19.680;2022-07-23T14:35:49;41.70;73.20
53432;DHT22;39329;44.754;19.680;2022-07-23T14:38:14;41.60;67.90
53432;DHT22;39329;44.754;19.680;2022-07-23T14:43:06;41.70;76.20
53432;DHT22;39329;44.754;19.680;2022-07-23T14:45:31;41.60;55.80
53432;DHT22;39329;44.754;19.680;2022-07-23T14:47:57;41.70;56.60
53432;DHT22;39329;44.754;19.680;2022-07-23T14:50:24;41.50;59.40
53432;DHT22;39329;44.754;19.680;2022-07-23T14:52:49;41.30;55.90
53432;DHT22;39329;44.754;19.680;2022-07-23T14:55:15;41.30;56.00
53432;DHT22;39329;44.754;19.680;2022-07-23T14:57:42;41.30;55.80
53432;DHT22;39329;44.754;19.680;2022-07-23T15:00:09;41.20;55.80
53432;DHT22;39329;44.754;19.680;2022-07-23T15:05:01;41.20;92.10
53432;DHT22;39329;44.754;19.680;2022-07-23T15:07:28;41.00;56.10
53432;DHT22;39329;44.754;19.680;2022-07-23T15:09:54;41.10;60.90
53432;DHT22;39329;44.754;19.680;2022-07-23T15:12:20;41.00;60.20
53432;DHT22;39329;44.754;19.680;2022-07-23T15:14:45;41.10;61.00
53432;DHT22;39329;44.754;19.680;2022-07-23T15:17:11;41.00;56.50
53432;DHT22;39329;44.754;19.680;2022-07-23T15:19:36;41.00;56.70
53432;DHT22;39329;44.754;19.680;2022-07-23T15:22:02;41.00;64.30
53432;DHT22;39329;44.754;19.680;2022-07-23T15:24:29;40.90;56.00
53432;DHT22;39329;44.754;19.680;2022-07-23T15:26:55;40.80;55.70
53432;DHT22;39329;44.754;19.680;2022-07-23T15:29:20;40.90;56.90
53432;DHT22;39329;44.754;19.680;2022-07-23T15:31:46;40.90;56.40
53432;DHT22;39329;44.754;19.680;2022-07-23T15:34:11;40.80;56.60
53432;DHT22;39329;44.754;19.680;2022-07-23T15:36:37;40.70;56.80
53432;DHT22;39329;44.754;19.680;2022-07-23T15:39:03;40.60;56.60
53432;DHT22;39329;44.754;19.680;2022-07-23T15:41:28;40.60;56.50
53432;DHT22;39329;44.754;19.680;2022-07-23T15:43:54;40.60;57.00
53432;DHT22;39329;44.754;19.680;2022-07-23T15:46:20;40.50;56.30
53432;DHT22;39329;44.754;19.680;2022-07-23T15:48:47;40.40;55.90
53432;DHT22;39329;44.754;19.680;2022-07-23T15:51:12;40.40;56.10
53432;DHT22;39329;44.754;19.680;2022-07-23T15:53:38;40.30;55.90
53432;DHT22;39329;44.754;19.680;2022-07-23T15:56:07;40.30;55.80
53432;DHT22;39329;44.754;19.680;2022-07-23T15:58:32;40.30;56.10
53432;DHT22;39329;44.754;19.680;2022-07-23T16:00:58;40.30;55.80
53432;DHT22;39329;44.754;19.680;2022-07-23T16:03:24;40.30;55.90
53432;DHT22;39329;44.754;19.680;2022-07-23T16:05:50;40.20;56.40
53432;DHT22;39329;44.754;19.680;2022-07-23T16:08:15;40.10;57.00
53432;DHT22;39329;44.754;19.680;2022-07-23T16:10:41;40.10;79.90
53432;DHT22;39329;44.754;19.680;2022-07-23T16:13:07;40.00;56.80
53432;DHT22;39329;44.754;19.680;2022-07-23T16:15:32;39.90;61.20
53432;DHT22;39329;44.754;19.680;2022-07-23T16:20:24;39.50;55.90
53432;DHT22;39329;44.754;19.680;2022-07-23T16:22:50;39.50;56.80
53432;DHT22;39329;44.754;19.680;2022-07-23T16:25:15;39.50;56.80
53432;DHT22;39329;44.754;19.680;2022-07-23T16:27:41;39.40;56.80
53432;DHT22;39329;44.754;19.680;2022-07-23T16:32:32;39.40;56.60
53432;DHT22;39329;44.754;19.680;2022-07-23T16:34:58;39.20;56.70
53432;DHT22;39329;44.754;19.680;2022-07-23T16:37:24;39.10;57.30
53432;DHT22;39329;44.754;19.680;2022-07-23T16:39:50;39.10;57.10
53432;DHT22;39329;44.754;19.680;2022-07-23T16:42:15;39.10;57.30
53432;DHT22;39329;44.754;19.680;2022-07-23T16:44:41;39.00;57.30
53432;DHT22;39329;44.754;19.680;2022-07-23T16:47:07;39.00;57.30
53432;DHT22;39329;44.754;19.680;2022-07-23T16:49:33;38.90;57.40
53432;DHT22;39329;44.754;19.680;2022-07-23T16:52:00;38.90;57.80
53432;DHT22;39329;44.754;19.680;2022-07-23T16:54:25;38.80;58.10
53432;DHT22;39329;44.754;19.680;2022-07-23T16:56:51;38.80;58.20
53432;DHT22;39329;44.754;19.680;2022-07-23T16:59:17;38.70;58.60
53432;DHT22;39329;44.754;19.680;2022-07-23T17:01:42;38.70;58.50
53432;DHT22;39329;44.754;19.680;2022-07-23T17:04:08;38.70;58.70
53432;DHT22;39329;44.754;19.680;2022-07-23T17:06:34;38.60;59.30
53432;DHT22;39329;44.754;19.680;2022-07-23T17:09:00;38.50;59.50
53432;DHT22;39329;44.754;19.680;2022-07-23T17:11:26;38.40;59.40
53432;DHT22;39329;44.754;19.680;2022-07-23T17:13:51;38.20;59.20
53432;DHT22;39329;44.754;19.680;2022-07-23T17:16:17;38.10;60.10
53432;DHT22;39329;44.754;19.680;2022-07-23T17:18:42;38.10;60.40
53432;DHT22;39329;44.754;19.680;2022-07-23T17:23:34;38.00;60.80
53432;DHT22;39329;44.754;19.680;2022-07-23T17:25:59;37.90;61.40
53432;DHT22;39329;44.754;19.680;2022-07-23T17:28:25;37.90;62.20
53432;DHT22;39329;44.754;19.680;2022-07-23T17:30:51;37.90;62.40
53432;DHT22;39329;44.754;19.680;2022-07-23T17:33:17;37.70;62.40
53432;DHT22;39329;44.754;19.680;2022-07-23T17:35:42;37.60;63.40
53432;DHT22;39329;44.754;19.680;2022-07-23T17:38:08;37.60;64.30
53432;DHT22;39329;44.754;19.680;2022-07-23T17:40:33;37.40;64.70
53432;DHT22;39329;44.754;19.680;2022-07-23T17:42:59;37.30;64.90
53432;DHT22;39329;44.754;19.680;2022-07-23T17:45:25;37.20;65.20
53432;DHT22;39329;44.754;19.680;2022-07-23T17:47:51;37.10;66.60
53432;DHT22;39329;44.754;19.680;2022-07-23T17:50:17;37.00;66.90
53432;DHT22;39329;44.754;19.680;2022-07-23T17:52:46;36.90;67.30
53432;DHT22;39329;44.754;19.680;2022-07-23T17:55:11;36.80;67.90
53432;DHT22;39329;44.754;19.680;2022-07-23T17:57:37;36.70;68.00
53432;DHT22;39329;44.754;19.680;2022-07-23T18:00:03;36.60;67.20
53432;DHT22;39329;44.754;19.680;2022-07-23T18:02:30;36.30;65.70
53432;DHT22;39329;44.754;19.680;2022-07-23T18:04:56;36.40;66.10
53432;DHT22;39329;44.754;19.680;2022-07-23T18:07:22;36.30;66.00
53432;DHT22;39329;44.754;19.680;2022-07-23T18:09:47;36.20;66.70
53432;DHT22;39329;44.754;19.680;2022-07-23T18:12:14;36.20;65.80
53432;DHT22;39329;44.754;19.680;2022-07-23T18:14:39;36.10;66.10
53432;DHT22;39329;44.754;19.680;2022-07-23T18:17:05;36.00;66.90
53432;DHT22;39329;44.754;19.680;2022-07-23T18:21:56;35.80;66.70
53432;DHT22;39329;44.754;19.680;2022-07-23T18:24:22;35.80;66.90
53432;DHT22;39329;44.754;19.680;2022-07-23T18:26:50;35.70;67.10
53432;DHT22;39329;44.754;19.680;2022-07-23T18:29:16;35.70;67.70
53432;DHT22;39329;44.754;19.680;2022-07-23T18:31:41;35.60;67.90
53432;DHT22;39329;44.754;19.680;2022-07-23T18:34:07;35.50;69.10
53432;DHT22;39329;44.754;19.680;2022-07-23T18:36:33;35.40;69.00
53432;DHT22;39329;44.754;19.680;2022-07-23T18:38:58;35.30;69.10
53432;DHT22;39329;44.754;19.680;2022-07-23T18:41:24;35.20;69.10
53432;DHT22;39329;44.754;19.680;2022-07-23T18:43:51;35.10;69.50
53432;DHT22;39329;44.754;19.680;2022-07-23T18:46:16;35.10;70.00
53432;DHT22;39329;44.754;19.680;2022-07-23T18:48:42;35.00;69.50
53432;DHT22;39329;44.754;19.680;2022-07-23T18:51:08;35.00;69.40
53432;DHT22;39329;44.754;19.680;2022-07-23T18:55:59;34.80;68.90
53432;DHT22;39329;44.754;19.680;2022-07-23T18:58:25;34.70;70.20
53432;DHT22;39329;44.754;19.680;2022-07-23T19:00:50;34.70;69.70
53432;DHT22;39329;44.754;19.680;2022-07-23T19:03:16;34.50;70.90
53432;DHT22;39329;44.754;19.680;2022-07-23T19:05:42;34.50;70.50
53432;DHT22;39329;44.754;19.680;2022-07-23T19:08:08;34.40;70.10
53432;DHT22;39329;44.754;19.680;2022-07-23T19:10:37;34.30;71.00
53432;DHT22;39329;44.754;19.680;2022-07-23T19:13:03;34.30;71.20
53432;DHT22;39329;44.754;19.680;2022-07-23T19:15:29;34.20;70.60
53432;DHT22;39329;44.754;19.680;2022-07-23T19:20:20;34.10;69.30
53432;DHT22;39329;44.754;19.680;2022-07-23T19:25:12;33.90;69.90
53432;DHT22;39329;44.754;19.680;2022-07-23T19:27:37;33.90;70.20
53432;DHT22;39329;44.754;19.680;2022-07-23T19:30:06;33.80;70.60
53432;DHT22;39329;44.754;19.680;2022-07-23T19:32:32;33.80;70.40
53432;DHT22;39329;44.754;19.680;2022-07-23T19:34:57;33.70;71.90
53432;DHT22;39329;44.754;19.680;2022-07-23T19:39:49;33.60;71.70
53432;DHT22;39329;44.754;19.680;2022-07-23T19:42:15;33.50;72.30
53432;DHT22;39329;44.754;19.680;2022-07-23T19:44:41;33.40;72.30
53432;DHT22;39329;44.754;19.680;2022-07-23T19:47:07;33.40;73.60
53432;DHT22;39329;44.754;19.680;2022-07-23T19:49:32;33.30;73.20
53432;DHT22;39329;44.754;19.680;2022-07-23T19:51:58;33.20;72.60
53432;DHT22;39329;44.754;19.680;2022-07-23T19:54:24;33.20;72.70
53432;DHT22;39329;44.754;19.680;2022-07-23T19:56:50;33.10;73.00
53432;DHT22;39329;44.754;19.680;2022-07-23T19:59:16;33.10;74.20
53432;DHT22;39329;44.754;19.680;2022-07-23T20:01:41;33.00;74.00
53432;DHT22;39329;44.754;19.680;2022-07-23T20:04:07;33.00;73.60
53432;DHT22;39329;44.754;19.680;2022-07-23T20:06:33;32.90;73.40
53432;DHT22;39329;44.754;19.680;2022-07-23T20:08:58;32.90;74.20
53432;DHT22;39329;44.754;19.680;2022-07-23T20:11:24;32.80;74.80
53432;DHT22;39329;44.754;19.680;2022-07-23T20:13:50;32.80;74.50
53432;DHT22;39329;44.754;19.680;2022-07-23T20:16:15;32.80;74.70
53432;DHT22;39329;44.754;19.680;2022-07-23T20:18:41;32.70;75.40
53432;DHT22;39329;44.754;19.680;2022-07-23T20:21:07;32.60;74.70
53432;DHT22;39329;44.754;19.680;2022-07-23T20:23:33;32.60;74.20
53432;DHT22;39329;44.754;19.680;2022-07-23T20:25:58;32.50;74.20
53432;DHT22;39329;44.754;19.680;2022-07-23T20:28:24;32.40;74.80
53432;DHT22;39329;44.754;19.680;2022-07-23T20:30:50;32.30;74.50
53432;DHT22;39329;44.754;19.680;2022-07-23T20:33:16;32.30;75.30
53432;DHT22;39329;44.754;19.680;2022-07-23T20:35:42;32.20;75.40
53432;DHT22;39329;44.754;19.680;2022-07-23T20:38:08;32.10;74.00
53432;DHT22;39329;44.754;19.680;2022-07-23T20:40:34;32.10;74.10
53432;DHT22;39329;44.754;19.680;2022-07-23T20:43:00;32.00;74.50
53432;DHT22;39329;44.754;19.680;2022-07-23T20:45:25;31.90;75.20
53432;DHT22;39329;44.754;19.680;2022-07-23T20:47:51;31.80;75.40
53432;DHT22;39329;44.754;19.680;2022-07-23T20:50:18;31.80;75.30
53432;DHT22;39329;44.754;19.680;2022-07-23T20:52:43;31.80;75.40
53432;DHT22;39329;44.754;19.680;2022-07-23T20:55:09;31.80;75.90
53432;DHT22;39329;44.754;19.680;2022-07-23T20:57:35;31.80;75.90
53432;DHT22;39329;44.754;19.680;2022-07-23T21:00:01;31.70;76.00
53432;DHT22;39329;44.754;19.680;2022-07-23T21:02:26;31.70;76.40